Main page
METAR-TAF:

METAR-TAF

Airports :

Algeciras Heliport

Algeciras, Spain

latitude: 36-07-44N, longitude: 05-26-28W, elevation: 30 m

Current weather observation

The report was made 23 minutes ago, at 06:00 UTC
Wind 12 kt from the East, varying between Northeast and East
Temperature 20°C
Humidity 88%
Pressure 1022 hPa
Visibility 10 km or more
Few clouds at a height of 1300 ft
Scattered clouds at a height of 1700 ft
Broken clouds at a height of 4300 ft

METAR: LEAG 230600Z AUTO 08012KT 040V100 9999 FEW013 SCT017 BKN043 20/18 Q1022

Time: 08:23 (06:23 UTC)


TAF: missing

Weather observations and forecasts of more than 4000 airports (METAR and TAF reports).

The available stations are represented by yellow and red dots on the map.

Hover mouse over dot to see the name of the station.

Then click to see weather observations and forecasts.

To change the map : click on the green buttons with a black cross to zoom in, on the green button with a dash to zoom out, or on the green arrows for adjacent maps.


METAR-TAF: